Time;durP1;ratioP1;P1;durP2;ratioP2;P2;SDS_P1;SDS_P2;PMS_P1;PMS_P2;Temp;Humidity;BMP_temperature;BMP_pressure;BME280_temperature;BME280_humidity;BME280_pressure;Samples;Min_cycle;Max_cycle;Signal;HPM_P1;HPM_P2
2022/03/14 00:01:38;;;;;;;7.63;4.22;;;9.80;99.90;;;;;;6108689;23;20032;-82
2022/03/14 00:04:03;;;;;;;8.20;4.57;;;9.70;99.90;;;;;;6159019;23;20021;-82
2022/03/14 00:06:29;;;;;;;8.30;4.10;;;9.70;99.90;;;;;;6133372;23;20037;-81
2022/03/14 00:08:57;;;;;;;7.13;3.80;;;9.60;99.90;;;;;;6133046;23;20041;-82
2022/03/14 00:11:26;;;;;;;7.10;4.57;;;9.60;99.90;;;;;;6132663;23;20485;-82
2022/03/14 00:13:54;;;;;;;6.28;3.70;;;9.50;99.90;;;;;;6132519;23;20064;-82
2022/03/14 00:16:23;;;;;;;7.60;4.28;;;9.50;99.90;;;;;;6132275;23;20013;-81
2022/03/14 00:18:50;;;;;;;6.75;4.00;;;9.50;99.90;;;;;;6133723;23;20031;-82
2022/03/14 00:21:20;;;;;;;8.45;4.28;;;9.50;99.90;;;;;;6132150;23;20013;-81
2022/03/14 00:23:46;;;;;;;7.40;3.88;;;9.40;99.90;;;;;;6127966;23;20037;-80
2022/03/14 00:26:12;;;;;;;5.63;3.60;;;9.40;99.90;;;;;;6152910;23;20016;-80
2022/03/14 00:28:37;;;;;;;7.60;4.15;;;9.40;99.90;;;;;;6158564;23;20015;-80
2022/03/14 00:31:03;;;;;;;5.88;3.50;;;9.50;99.90;;;;;;6128375;23;20018;-80
2022/03/14 00:33:29;;;;;;;6.32;3.47;;;9.40;99.90;;;;;;6130213;23;20017;-79
2022/03/14 00:35:56;;;;;;;5.95;3.53;;;9.40;99.90;;;;;;6159161;23;20049;-79
2022/03/14 00:38:23;;;;;;;6.60;3.92;;;9.50;99.90;;;;;;6157684;23;20404;-79
2022/03/14 00:40:49;;;;;;;7.22;3.33;;;9.50;99.90;;;;;;6133936;23;20027;-80
2022/03/14 00:43:14;;;;;;;5.15;3.28;;;9.50;99.90;;;;;;6132747;23;20013;-79
2022/03/14 00:45:40;;;;;;;6.65;3.03;;;9.50;99.90;;;;;;6156432;23;20009;-80
2022/03/14 00:48:05;;;;;;;5.40;3.38;;;9.50;99.90;;;;;;6131904;23;20087;-80
2022/03/14 00:50:31;;;;;;;5.28;2.83;;;9.50;99.90;;;;;;6158017;23;20020;-79
2022/03/14 00:52:57;;;;;;;4.43;3.25;;;9.60;99.90;;;;;;6158086;23;20014;-79
2022/03/14 00:55:22;;;;;;;5.80;2.97;;;9.60;99.90;;;;;;6159485;23;20026;-79
2022/03/14 00:57:48;;;;;;;5.47;3.30;;;9.50;99.90;;;;;;6132895;23;20013;-80
2022/03/14 01:00:13;;;;;;;5.00;2.90;;;9.50;99.90;;;;;;6157528;23;20530;-80
2022/03/14 01:02:39;;;;;;;5.95;3.47;;;9.50;99.90;;;;;;6157080;23;20100;-80
2022/03/14 01:05:05;;;;;;;5.50;3.40;;;9.50;99.90;;;;;;6131957;23;20017;-80
2022/03/14 01:07:34;;;;;;;6.32;3.42;;;9.40;99.90;;;;;;6157742;23;20061;-79
2022/03/14 01:10:00;;;;;;;5.05;3.25;;;9.40;99.90;;;;;;6157386;23;20025;-79
2022/03/14 01:12:26;;;;;;;4.88;3.05;;;9.40;99.90;;;;;;6134074;23;20017;-80
2022/03/14 01:14:52;;;;;;;9.02;3.20;;;9.50;99.90;;;;;;6107877;23;20037;-79
2022/03/14 01:17:17;;;;;;;4.35;2.97;;;9.40;99.90;;;;;;6157552;23;20017;-79
2022/03/14 01:19:43;;;;;;;4.55;2.75;;;9.50;99.90;;;;;;6132168;23;20052;-79
2022/03/14 01:22:10;;;;;;;5.50;3.15;;;9.50;99.90;;;;;;6107968;23;20416;-80
2022/03/14 01:24:38;;;;;;;4.93;2.80;;;9.50;99.90;;;;;;6132797;23;20065;-81
2022/03/14 01:27:08;;;;;;;3.88;2.60;;;9.50;99.90;;;;;;6131089;23;20009;-82
2022/03/14 01:29:34;;;;;;;6.43;2.80;;;9.50;99.90;;;;;;6128025;23;20012;-82
2022/03/14 01:32:01;;;;;;;3.20;2.50;;;9.60;99.90;;;;;;6159189;23;20017;-82
2022/03/14 01:34:27;;;;;;;3.67;2.67;;;9.60;99.90;;;;;;6132073;23;20471;-82
2022/03/14 01:36:52;;;;;;;6.25;3.08;;;9.60;99.90;;;;;;6154785;23;20024;-82
2022/03/14 01:39:18;;;;;;;4.85;3.00;;;9.50;99.90;;;;;;6133701;23;20017;-82
2022/03/14 01:41:43;;;;;;;4.35;3.00;;;9.50;99.90;;;;;;6132309;23;20053;-82
2022/03/14 01:44:09;;;;;;;6.45;3.00;;;9.50;99.90;;;;;;6127490;23;20474;-82
2022/03/14 01:46:35;;;;;;;4.25;2.80;;;9.50;99.90;;;;;;6131987;23;20044;-82
2022/03/14 01:49:01;;;;;;;5.43;2.63;;;9.50;99.90;;;;;;6107874;23;20017;-82
2022/03/14 01:51:27;;;;;;;4.65;2.80;;;9.50;99.90;;;;;;6131296;23;20029;-82
2022/03/14 01:53:53;;;;;;;4.95;2.88;;;9.50;99.90;;;;;;6156925;23;20014;-82
2022/03/14 01:56:19;;;;;;;4.35;2.90;;;9.50;99.90;;;;;;6107200;23;20068;-82
2022/03/14 01:58:47;;;;;;;5.68;2.92;;;9.50;99.90;;;;;;6132213;23;20020;-82
2022/03/14 02:01:13;;;;;;;3.83;2.55;;;9.50;99.90;;;;;;6107769;23;20029;-82
2022/03/14 02:03:38;;;;;;;6.07;3.17;;;9.50;99.90;;;;;;6132528;23;20045;-82
2022/03/14 02:06:04;;;;;;;5.40;3.03;;;9.50;99.90;;;;;;6154906;23;20013;-82
2022/03/14 02:08:29;;;;;;;4.03;2.35;;;9.50;99.90;;;;;;6129708;23;20013;-82
2022/03/14 02:10:55;;;;;;;3.58;2.40;;;9.60;99.90;;;;;;6128357;23;20022;-82
2022/03/14 02:13:21;;;;;;;4.13;2.80;;;9.60;99.90;;;;;;6155549;23;20021;-82
2022/03/14 02:15:47;;;;;;;4.90;2.90;;;9.60;99.90;;;;;;6135892;23;20013;-82
2022/03/14 02:18:13;;;;;;;4.38;2.88;;;9.60;99.90;;;;;;6159292;23;20040;-81
2022/03/14 02:20:38;;;;;;;4.97;3.15;;;9.60;99.90;;;;;;6134352;23;20015;-82
2022/03/14 02:23:04;;;;;;;4.03;2.72;;;9.60;99.90;;;;;;6135529;23;20097;-82
2022/03/14 02:25:32;;;;;;;4.30;2.95;;;9.60;99.90;;;;;;6159964;23;20017;-81
2022/03/14 02:27:58;;;;;;;4.25;2.60;;;9.70;99.90;;;;;;6159365;23;20013;-81
2022/03/14 02:30:23;;;;;;;4.50;3.00;;;9.70;99.90;;;;;;6134020;23;20020;-81
2022/03/14 02:32:49;;;;;;;3.63;2.70;;;9.80;99.90;;;;;;6134566;23;20068;-81
2022/03/14 02:35:15;;;;;;;4.57;2.78;;;9.80;99.90;;;;;;6134135;23;20449;-81
2022/03/14 02:37:40;;;;;;;4.70;2.78;;;9.80;99.90;;;;;;6160688;23;20025;-81
2022/03/14 02:40:07;;;;;;;5.63;2.78;;;9.90;99.90;;;;;;6135813;23;20020;-81
2022/03/14 02:42:33;;;;;;;5.72;3.63;;;9.90;99.90;;;;;;6133733;23;20751;-81
2022/03/14 02:45:00;;;;;;;4.20;2.60;;;9.90;99.90;;;;;;6161788;23;20009;-81
2022/03/14 02:47:25;;;;;;;4.80;3.03;;;9.90;99.90;;;;;;6135639;23;20021;-81
2022/03/14 02:49:51;;;;;;;5.47;2.85;;;9.90;99.90;;;;;;6134968;23;20040;-81
2022/03/14 02:52:16;;;;;;;4.55;2.72;;;9.80;99.90;;;;;;6161413;23;20033;-81
2022/03/14 02:54:43;;;;;;;5.38;2.80;;;9.80;99.90;;;;;;6134273;23;20497;-81
2022/03/14 02:57:09;;;;;;;4.05;2.80;;;9.70;99.90;;;;;;6135168;23;20044;-81
2022/03/14 02:59:34;;;;;;;2.78;2.35;;;9.70;99.90;;;;;;6136253;23;20445;-81
2022/03/14 03:02:00;;;;;;;5.40;3.15;;;9.70;99.90;;;;;;6134621;23;20014;-81
2022/03/14 03:04:26;;;;;;;3.58;2.50;;;9.70;99.90;;;;;;6136884;23;20013;-81
2022/03/14 03:06:53;;;;;;;5.13;3.30;;;9.60;99.90;;;;;;6137022;23;20006;-81
2022/03/14 03:09:19;;;;;;;4.85;2.88;;;9.70;99.90;;;;;;6111723;23;20057;-81
2022/03/14 03:11:45;;;;;;;3.72;2.72;;;9.70;99.90;;;;;;6135709;23;20382;-81
2022/03/14 03:14:10;;;;;;;5.50;2.60;;;9.60;99.90;;;;;;6136751;23;20017;-81
2022/03/14 03:16:36;;;;;;;3.72;2.67;;;9.60;99.90;;;;;;6135945;23;20041;-81
2022/03/14 03:19:03;;;;;;;4.90;3.03;;;9.70;99.90;;;;;;6135770;23;20013;-81
2022/03/14 03:21:28;;;;;;;4.82;2.92;;;9.70;99.90;;;;;;6110410;23;20320;-81
2022/03/14 03:23:54;;;;;;;3.33;2.70;;;9.70;99.90;;;;;;6135505;23;20168;-81
2022/03/14 03:26:20;;;;;;;4.45;2.35;;;9.70;99.90;;;;;;6160497;23;20013;-81
2022/03/14 03:28:46;;;;;;;3.55;2.45;;;9.70;99.90;;;;;;6111156;23;20047;-81
2022/03/14 03:31:17;;;;;;;4.32;2.75;;;9.70;99.90;;;;;;6133491;23;20347;-81
2022/03/14 03:33:43;;;;;;;4.63;2.67;;;9.70;99.90;;;;;;6133978;23;20013;-81
2022/03/14 03:36:09;;;;;;;6.70;2.40;;;9.70;99.90;;;;;;6110568;23;20025;-81
2022/03/14 03:38:35;;;;;;;3.97;2.63;;;9.80;99.90;;;;;;6130518;23;20017;-80
2022/03/14 03:41:02;;;;;;;3.78;2.17;;;9.80;99.90;;;;;;6129713;23;20013;-80
2022/03/14 03:43:27;;;;;;;3.95;2.28;;;9.80;99.90;;;;;;6130013;23;20016;-80
2022/03/14 03:45:54;;;;;;;2.85;2.20;;;9.80;99.90;;;;;;6154778;23;20084;-80
2022/03/14 03:48:20;;;;;;;3.50;2.35;;;9.90;99.90;;;;;;6105394;23;20009;-80
2022/03/14 03:50:46;;;;;;;2.90;2.20;;;9.80;99.90;;;;;;6129407;23;20021;-81
2022/03/14 03:53:12;;;;;;;2.53;1.90;;;9.80;99.90;;;;;;6154442;23;20555;-80
2022/03/14 03:55:38;;;;;;;3.55;2.55;;;9.70;99.90;;;;;;6129241;23;20096;-80
2022/03/14 03:58:04;;;;;;;3.22;2.20;;;9.70;99.90;;;;;;6129476;23;20354;-80
2022/03/14 04:00:30;;;;;;;3.60;2.35;;;9.60;99.90;;;;;;6129453;23;20017;-80
2022/03/14 04:02:55;;;;;;;4.15;2.03;;;9.60;99.90;;;;;;6129806;23;20027;-80
2022/03/14 04:05:23;;;;;;;3.53;2.13;;;9.60;99.90;;;;;;6129314;23;20013;-80
2022/03/14 04:07:49;;;;;;;3.85;2.25;;;9.60;99.90;;;;;;6129056;23;20021;-81
2022/03/14 04:10:15;;;;;;;3.72;2.40;;;9.60;99.90;;;;;;6105057;23;20017;-80
2022/03/14 04:12:42;;;;;;;3.60;2.30;;;9.60;99.90;;;;;;6153725;23;20580;-80
2022/03/14 04:15:09;;;;;;;3.40;2.13;;;9.60;99.90;;;;;;6129765;23;20018;-81
2022/03/14 04:17:40;;;;;;;3.95;2.20;;;9.60;99.90;;;;;;6130020;23;20009;-80
2022/03/14 04:20:08;;;;;;;5.82;2.08;;;9.50;99.90;;;;;;6128824;23;20027;-80
2022/03/14 04:22:37;;;;;;;3.65;2.60;;;9.50;99.90;;;;;;6104789;23;20013;-81
2022/03/14 04:25:05;;;;;;;3.55;2.17;;;9.50;99.90;;;;;;6129726;23;20022;-81
2022/03/14 04:27:31;;;;;;;3.10;2.13;;;9.50;99.90;;;;;;6128591;23;20010;-82
2022/03/14 04:29:57;;;;;;;4.18;2.40;;;9.50;99.90;;;;;;6129503;23;20125;-80
2022/03/14 04:32:23;;;;;;;3.83;2.35;;;9.50;99.90;;;;;;6129036;23;20140;-80
2022/03/14 04:34:49;;;;;;;3.13;2.20;;;9.50;99.90;;;;;;6128950;23;20324;-80
2022/03/14 04:37:15;;;;;;;4.50;2.40;;;9.50;99.90;;;;;;6129216;23;20017;-81
2022/03/14 04:39:41;;;;;;;4.55;2.40;;;9.50;99.90;;;;;;6128654;23;20017;-81
2022/03/14 04:42:07;;;;;;;4.60;2.00;;;9.50;99.90;;;;;;6128608;23;20044;-81
2022/03/14 04:44:34;;;;;;;2.17;1.90;;;9.50;99.90;;;;;;6129004;23;20013;-80
2022/03/14 04:46:59;;;;;;;3.72;2.60;;;9.50;99.90;;;;;;6129760;23;20049;-80
2022/03/14 04:49:26;;;;;;;4.30;2.75;;;9.50;99.90;;;;;;6129961;23;20017;-80
2022/03/14 04:51:54;;;;;;;4.35;2.50;;;9.50;99.90;;;;;;6129892;23;20020;-81
2022/03/14 04:54:19;;;;;;;5.72;3.03;;;9.50;99.90;;;;;;6105220;23;20719;-81
2022/03/14 04:56:45;;;;;;;7.05;2.88;;;9.50;99.90;;;;;;6130692;23;20025;-81
2022/03/14 04:59:11;;;;;;;3.70;2.53;;;9.50;99.90;;;;;;6155026;23;20017;-80
2022/03/14 05:01:37;;;;;;;6.22;3.15;;;9.50;99.90;;;;;;6128865;23;20021;-81
2022/03/14 05:04:03;;;;;;;4.65;2.75;;;9.50;99.90;;;;;;6154229;23;20091;-80
2022/03/14 05:06:29;;;;;;;4.40;2.67;;;9.50;99.90;;;;;;6130169;23;20382;-80
2022/03/14 05:08:54;;;;;;;5.20;2.80;;;9.50;99.90;;;;;;6154130;23;20013;-83
2022/03/14 05:11:20;;;;;;;5.95;2.50;;;9.50;99.90;;;;;;6129652;23;20055;-80
2022/03/14 05:13:45;;;;;;;3.60;2.60;;;9.50;99.90;;;;;;6129546;23;20351;-80
2022/03/14 05:16:11;;;;;;;3.63;2.75;;;9.50;99.90;;;;;;6129417;23;20455;-81
2022/03/14 05:18:37;;;;;;;4.10;2.90;;;9.40;99.90;;;;;;6154728;23;20020;-82
2022/03/14 05:21:03;;;;;;;4.88;3.17;;;9.40;99.90;;;;;;6129345;23;20017;-83
2022/03/14 05:23:28;;;;;;;5.75;2.97;;;9.40;99.90;;;;;;6154794;23;20024;-80
2022/03/14 05:25:55;;;;;;;3.97;2.85;;;9.40;99.90;;;;;;6154903;23;20052;-80
2022/03/14 05:28:21;;;;;;;7.10;3.58;;;9.30;99.90;;;;;;6130431;23;20076;-81
2022/03/14 05:30:46;;;;;;;4.72;3.10;;;9.30;99.90;;;;;;6130520;23;20048;-81
2022/03/14 05:33:12;;;;;;;5.57;3.25;;;9.30;99.90;;;;;;6130416;23;20018;-81
2022/03/14 05:35:37;;;;;;;4.82;3.08;;;9.30;99.90;;;;;;6105421;23;20324;-81
2022/03/14 05:38:03;;;;;;;6.00;3.05;;;9.20;99.90;;;;;;6130405;23;20044;-82
2022/03/14 05:40:29;;;;;;;4.80;3.33;;;9.20;99.90;;;;;;6131272;23;20013;-82
2022/03/14 05:42:57;;;;;;;6.63;4.05;;;9.20;99.90;;;;;;6132911;23;20014;-81
2022/03/14 05:45:22;;;;;;;6.97;3.55;;;9.20;99.90;;;;;;6132611;23;20013;-81
2022/03/14 05:47:48;;;;;;;5.55;2.83;;;9.20;99.90;;;;;;6158301;23;20096;-81
2022/03/14 05:50:15;;;;;;;6.70;3.20;;;9.10;99.90;;;;;;6133516;23;20446;-81
2022/03/14 05:52:41;;;;;;;7.07;3.40;;;9.10;99.90;;;;;;6132349;23;20319;-81
2022/03/14 05:55:08;;;;;;;4.55;2.90;;;9.10;99.90;;;;;;6157204;23;20129;-81
2022/03/14 05:57:34;;;;;;;5.97;3.28;;;9.10;99.90;;;;;;6133527;23;20025;-82
2022/03/14 06:00:00;;;;;;;4.38;2.95;;;9.10;99.90;;;;;;6133020;23;20018;-83
2022/03/14 06:02:27;;;;;;;3.70;2.53;;;9.10;99.90;;;;;;6133386;23;20513;-81
2022/03/14 06:04:53;;;;;;;5.75;3.35;;;9.10;99.90;;;;;;6110171;23;20036;-81
2022/03/14 06:07:21;;;;;;;4.95;3.42;;;9.00;99.90;;;;;;6110434;23;20009;-81
2022/03/14 06:09:47;;;;;;;4.60;3.00;;;9.10;99.90;;;;;;6160751;23;20013;-81
2022/03/14 06:12:29;;;;;;;6.18;2.97;;;9.10;99.90;;;;;;6133907;23;20058;-81
2022/03/14 06:15:00;;;;;;;5.10;3.60;;;9.00;99.90;;;;;;6134167;23;20332;-82
2022/03/14 06:17:26;;;;;;;4.65;2.63;;;9.00;99.90;;;;;;6134611;23;20343;-81
2022/03/14 06:19:52;;;;;;;4.95;3.50;;;9.10;99.90;;;;;;6159117;23;20096;-82
2022/03/14 06:22:19;;;;;;;5.85;3.00;;;9.00;99.90;;;;;;6109516;23;20016;-81
2022/03/14 06:24:47;;;;;;;4.82;2.65;;;9.00;99.90;;;;;;6133906;23;20092;-82
2022/03/14 06:27:16;;;;;;;5.35;3.28;;;9.00;99.90;;;;;;6160714;23;20075;-82
2022/03/14 06:29:43;;;;;;;5.18;3.33;;;9.00;99.90;;;;;;6133097;23;20017;-81
2022/03/14 06:32:09;;;;;;;5.15;3.28;;;9.00;99.90;;;;;;6133302;23;20039;-83
2022/03/14 06:34:35;;;;;;;6.70;3.10;;;9.00;99.90;;;;;;6159538;23;20016;-82
2022/03/14 06:37:00;;;;;;;4.63;3.22;;;9.00;99.90;;;;;;6132519;23;20096;-83
2022/03/14 06:39:26;;;;;;;5.15;2.67;;;9.00;99.90;;;;;;6108713;23;20045;-84
2022/03/14 06:41:52;;;;;;;5.50;3.30;;;9.00;99.90;;;;;;6132330;23;20481;-81
2022/03/14 06:44:19;;;;;;;8.48;3.13;;;9.00;99.90;;;;;;6109006;23;20013;-81
2022/03/14 06:46:45;;;;;;;4.68;3.17;;;9.00;99.90;;;;;;6159244;23;20093;-81
2022/03/14 06:49:13;;;;;;;5.63;3.70;;;9.00;99.90;;;;;;6107131;23;20010;-82
2022/03/14 06:51:40;;;;;;;6.55;3.67;;;9.10;99.90;;;;;;6156900;23;20013;-82
2022/03/14 06:54:05;;;;;;;4.78;3.20;;;9.00;99.90;;;;;;6161094;23;20195;-84
2022/03/14 06:56:32;;;;;;;4.63;3.20;;;9.10;99.90;;;;;;6159341;23;20021;-80
2022/03/14 06:58:58;;;;;;;6.45;3.40;;;9.00;99.90;;;;;;6159011;23;20013;-81
2022/03/14 07:01:24;;;;;;;4.93;3.38;;;9.10;99.90;;;;;;6133071;23;20348;-83
2022/03/14 07:03:50;;;;;;;5.13;3.80;;;9.10;99.90;;;;;;6156739;23;20014;-81
2022/03/14 07:06:15;;;;;;;4.68;3.42;;;9.10;99.90;;;;;;6158656;23;20093;-83
2022/03/14 07:08:41;;;;;;;4.47;3.55;;;9.10;99.90;;;;;;6133523;23;20013;-81
2022/03/14 07:11:06;;;;;;;6.80;3.47;;;9.10;99.90;;;;;;6156040;23;20072;-81
2022/03/14 07:13:32;;;;;;;5.75;3.70;;;9.10;99.90;;;;;;6108797;23;20025;-81
2022/03/14 07:15:58;;;;;;;5.72;3.13;;;9.10;99.90;;;;;;6159626;23;20009;-81
2022/03/14 07:18:23;;;;;;;6.40;3.72;;;9.20;99.90;;;;;;6136064;23;20034;-81
2022/03/14 07:20:49;;;;;;;6.25;3.70;;;9.20;99.90;;;;;;6136061;23;20378;-81
2022/03/14 07:23:14;;;;;;;7.15;4.00;;;9.20;99.90;;;;;;6159270;23;20073;-81
2022/03/14 07:25:40;;;;;;;4.65;3.22;;;9.20;99.90;;;;;;6111935;23;20435;-81
2022/03/14 07:28:07;;;;;;;5.90;3.63;;;9.20;99.90;;;;;;6135270;23;20083;-80
2022/03/14 07:30:34;;;;;;;4.75;3.20;;;9.20;99.90;;;;;;6159656;23;20009;-81
2022/03/14 07:33:00;;;;;;;6.05;3.90;;;9.30;99.90;;;;;;6134601;23;20044;-81
2022/03/14 07:35:27;;;;;;;6.10;3.67;;;9.20;99.90;;;;;;6133661;23;20021;-82
2022/03/14 07:37:53;;;;;;;5.88;3.85;;;9.30;99.90;;;;;;6133479;23;20028;-82
2022/03/14 07:40:19;;;;;;;6.03;3.95;;;9.30;99.90;;;;;;6136307;23;20024;-81
2022/03/14 07:46:01;;;;;;;6.35;3.80;;;9.30;99.90;;;;;;6230542;22;20021;-82
2022/03/14 07:48:34;;;;;;;5.90;3.70;;;9.30;99.90;;;;;;6195947;23;20087;-81
2022/03/14 07:51:08;;;;;;;5.57;3.97;;;9.30;99.90;;;;;;6221007;23;20016;-81
2022/03/14 07:53:41;;;;;;;6.22;4.15;;;9.30;99.90;;;;;;6216661;23;20048;-82
2022/03/14 07:56:18;;;;;;;10.15;3.92;;;9.30;99.90;;;;;;6166134;23;20021;-82
2022/03/14 07:58:50;;;;;;;6.75;4.25;;;9.20;99.90;;;;;;6162728;23;20009;-82
2022/03/14 08:01:36;;;;;;;5.50;4.05;;;9.20;99.90;;;;;;6186697;23;20017;-82
2022/03/14 08:04:16;;;;;;;7.00;4.10;;;9.20;99.90;;;;;;6165223;23;20024;-82
2022/03/14 08:06:54;;;;;;;6.53;4.10;;;9.20;99.90;;;;;;6190094;23;20105;-82
2022/03/14 08:09:22;;;;;;;5.60;3.88;;;9.30;99.90;;;;;;6188523;23;20013;-82
2022/03/14 08:11:51;;;;;;;6.90;4.35;;;9.20;99.90;;;;;;6165746;23;20023;-82
2022/03/14 08:14:19;;;;;;;6.65;4.50;;;9.30;99.90;;;;;;6166791;23;20056;-81
2022/03/14 08:16:50;;;;;;;7.90;4.72;;;9.40;99.90;;;;;;6190454;23;20044;-82
2022/03/14 08:19:20;;;;;;;7.60;4.47;;;9.30;99.90;;;;;;6188619;23;20020;-82
2022/03/14 08:21:47;;;;;;;8.52;4.45;;;9.30;99.90;;;;;;6190365;23;20020;-81
2022/03/14 08:24:14;;;;;;;10.38;4.70;;;9.30;99.90;;;;;;6163689;23;20013;-81
2022/03/14 08:26:41;;;;;;;9.18;5.10;;;9.30;99.90;;;;;;6192213;23;20469;-82
2022/03/14 08:29:32;;;;;;;9.95;5.13;;;9.20;99.90;;;;;;6187926;23;20009;-82
2022/03/14 08:31:58;;;;;;;12.52;5.82;;;9.30;99.90;;;;;;6164181;23;20399;-82
2022/03/14 08:34:40;;;;;;;8.68;5.93;;;9.20;99.90;;;;;;6186569;23;20453;-82
2022/03/14 08:37:08;;;;;;;8.07;5.10;;;9.20;99.90;;;;;;6185938;23;20459;-82
2022/03/14 08:39:37;;;;;;;10.30;6.53;;;9.20;99.90;;;;;;6161468;23;20021;-81
2022/03/14 08:42:04;;;;;;;13.25;7.05;;;9.20;99.90;;;;;;6185107;23;20092;-83
2022/03/14 08:44:30;;;;;;;11.98;6.82;;;9.20;99.90;;;;;;6160061;23;20017;-82
2022/03/14 08:46:55;;;;;;;12.27;7.32;;;9.20;99.90;;;;;;6186130;23;20009;-82
2022/03/14 08:49:21;;;;;;;11.90;7.07;;;9.10;99.90;;;;;;6185281;23;20320;-82
2022/03/14 08:51:46;;;;;;;12.43;7.18;;;9.20;99.90;;;;;;6183989;23;20474;-82
2022/03/14 08:54:12;;;;;;;14.32;7.93;;;9.10;99.90;;;;;;6184015;23;20013;-82
2022/03/14 08:56:37;;;;;;;12.93;7.38;;;9.10;99.90;;;;;;6186723;23;20492;-82
2022/03/14 08:59:04;;;;;;;15.00;7.53;;;9.10;99.90;;;;;;6161026;23;20630;-83
2022/03/14 09:01:43;;;;;;;12.70;6.72;;;9.10;99.90;;;;;;6186766;23;20009;-82
2022/03/14 09:04:17;;;;;;;13.80;7.63;;;9.00;99.90;;;;;;6161190;23;20017;-82
2022/03/14 09:06:51;;;;;;;9.35;5.78;;;9.00;99.90;;;;;;6184044;23;20020;-83
2022/03/14 09:09:25;;;;;;;10.82;5.53;;;9.00;99.90;;;;;;6160664;23;20104;-82
2022/03/14 09:12:00;;;;;;;8.05;5.28;;;9.00;99.90;;;;;;6160239;23;20155;-82
2022/03/14 09:14:35;;;;;;;11.23;6.47;;;8.90;99.90;;;;;;6186282;23;20017;-82
2022/03/14 09:17:00;;;;;;;8.52;5.45;;;8.90;99.90;;;;;;6187276;23;20324;-82
2022/03/14 09:19:27;;;;;;;10.00;5.65;;;8.90;99.90;;;;;;6187447;23;20017;-81
2022/03/14 09:21:57;;;;;;;11.85;6.35;;;8.90;99.90;;;;;;6162628;23;20016;-81
2022/03/14 09:24:24;;;;;;;12.02;6.57;;;8.90;99.90;;;;;;6187606;23;20095;-81
2022/03/14 09:26:50;;;;;;;15.88;7.72;;;9.00;99.90;;;;;;6187268;23;20009;-82
2022/03/14 09:29:15;;;;;;;15.52;7.93;;;9.00;99.90;;;;;;6187973;23;20059;-81
2022/03/14 09:31:41;;;;;;;14.38;8.13;;;9.00;99.90;;;;;;6187427;23;20457;-81
2022/03/14 09:34:06;;;;;;;16.20;8.45;;;9.00;99.90;;;;;;6189489;23;20397;-82
2022/03/14 09:36:32;;;;;;;19.35;8.55;;;9.00;99.90;;;;;;6188062;23;20108;-80
2022/03/14 09:39:07;;;;;;;20.85;9.75;;;9.00;99.90;;;;;;6188003;23;20040;-80
2022/03/14 09:41:34;;;;;;;20.48;9.82;;;9.10;99.90;;;;;;6189089;23;20027;-79
2022/03/14 09:44:04;;;;;;;18.08;8.65;;;9.00;99.90;;;;;;6192565;23;20028;-79
2022/03/14 09:46:39;;;;;;;16.85;9.20;;;9.00;99.90;;;;;;6171643;23;20401;-80
2022/03/14 09:49:09;;;;;;;15.73;7.32;;;9.00;99.90;;;;;;6196166;23;20009;-79
2022/03/14 09:51:39;;;;;;;15.02;7.53;;;9.00;99.90;;;;;;6193186;23;20036;-80
2022/03/14 09:54:09;;;;;;;13.85;6.88;;;9.00;99.90;;;;;;6195650;23;20092;-80
2022/03/14 09:56:41;;;;;;;17.52;6.70;;;9.00;99.90;;;;;;6195097;23;20017;-79
2022/03/14 09:59:12;;;;;;;12.77;6.63;;;9.10;99.90;;;;;;6194975;23;20017;-79
2022/03/14 10:01:41;;;;;;;13.73;5.82;;;9.10;99.90;;;;;;6167867;23;20016;-79
2022/03/14 10:04:13;;;;;;;12.55;6.15;;;9.10;99.90;;;;;;6193313;23;20021;-80
2022/03/14 10:06:44;;;;;;;18.45;6.80;;;9.20;99.90;;;;;;6188705;23;20009;-81
2022/03/14 10:09:13;;;;;;;13.98;5.28;;;9.20;99.90;;;;;;6163962;23;20025;-81
2022/03/14 10:11:39;;;;;;;18.55;7.22;;;9.20;99.90;;;;;;6162744;23;20019;-81
2022/03/14 10:14:06;;;;;;;16.25;7.10;;;9.20;99.90;;;;;;6187880;23;20052;-81
2022/03/14 10:16:38;;;;;;;8.70;4.57;;;9.30;99.90;;;;;;6162366;23;20020;-79
2022/03/14 10:19:07;;;;;;;16.73;4.65;;;9.30;99.90;;;;;;6160576;23;20024;-80
2022/03/14 10:21:38;;;;;;;14.88;4.70;;;9.30;99.90;;;;;;6161764;23;20496;-80
2022/03/14 10:24:06;;;;;;;9.73;5.07;;;9.40;99.90;;;;;;6161610;23;20450;-80
2022/03/14 10:26:33;;;;;;;8.50;5.07;;;9.40;99.90;;;;;;6185402;23;20091;-79
2022/03/14 10:29:01;;;;;;;11.00;3.75;;;9.50;99.90;;;;;;6185239;23;20044;-79
2022/03/14 10:31:29;;;;;;;11.38;3.78;;;9.50;99.90;;;;;;6186974;23;20059;-80
2022/03/14 10:34:09;;;;;;;10.23;4.03;;;9.60;99.90;;;;;;6163153;23;20024;-80
2022/03/14 10:36:43;;;;;;;11.55;5.25;;;9.70;99.90;;;;;;6161954;23;20343;-80
2022/03/14 10:39:18;;;;;;;8.45;3.00;;;9.70;99.90;;;;;;6160492;23;20017;-79
2022/03/14 10:45:09;;;;;;;10.15;3.22;;;9.90;99.90;;;;;;6168048;23;20032;-80
2022/03/14 10:47:46;;;;;;;6.88;2.47;;;9.90;99.90;;;;;;6196432;23;20024;-80
2022/03/14 10:50:37;;;;;;;7.70;2.45;;;10.00;99.90;;;;;;6197503;23;20017;-79
2022/03/14 10:53:21;;;;;;;11.13;2.83;;;10.00;99.90;;;;;;6179362;23;20092;-79
2022/03/14 10:55:49;;;;;;;6.80;2.45;;;10.10;99.90;;;;;;6199910;23;20021;-80
2022/03/14 10:59:03;;;;;;;10.77;3.42;;;10.30;99.90;;;;;;6197942;23;20087;-79
2022/03/14 11:02:25;;;;;;;8.05;2.40;;;10.40;99.90;;;;;;6186193;23;20024;-79
2022/03/14 11:08:47;;;;;;;7.78;3.00;;;10.60;99.90;;;;;;6182721;23;20024;-79
2022/03/14 11:11:25;;;;;;;8.90;2.38;;;10.70;99.90;;;;;;6197465;23;20350;-80
2022/03/14 11:14:12;;;;;;;9.13;2.58;;;10.80;99.90;;;;;;6198469;23;20024;-80
2022/03/14 11:16:38;;;;;;;6.88;2.85;;;10.90;99.90;;;;;;6165082;23;20347;-79
2022/03/14 11:19:39;;;;;;;12.02;3.60;;;10.80;99.90;;;;;;6164781;23;20013;-79
2022/03/14 11:22:10;;;;;;;9.10;2.53;;;10.90;99.90;;;;;;6166023;23;20016;-79
2022/03/14 11:25:03;;;;;;;5.90;2.78;;;10.90;99.90;;;;;;6164838;23;20101;-80
2022/03/14 11:27:34;;;;;;;11.27;3.47;;;10.90;99.90;;;;;;6163406;23;20013;-80
2022/03/14 11:30:09;;;;;;;9.75;3.40;;;10.90;99.90;;;;;;6163453;23;20013;-80
2022/03/14 11:32:41;;;;;;;11.45;4.82;;;11.00;99.90;;;;;;6163881;23;20394;-80
2022/03/14 11:35:18;;;;;;;;;;;11.00;99.90;;;;;;6194288;23;20017;-79
2022/03/14 11:38:21;;;;;;;12.63;4.22;;;11.00;99.90;;;;;;6168794;23;19986;-79
2022/03/14 11:40:58;;;;;;;9.45;4.15;;;10.90;99.90;;;;;;6165043;23;20017;-79
2022/03/14 11:43:24;;;;;;;20.10;5.03;;;10.90;99.90;;;;;;6188621;23;20031;-80
2022/03/14 11:45:51;;;;;;;15.98;4.70;;;10.90;99.90;;;;;;6189036;23;20468;-80
2022/03/14 11:48:17;;;;;;;10.90;4.82;;;10.90;99.90;;;;;;6164292;23;20561;-79
2022/03/14 11:50:56;;;;;;;10.20;5.18;;;11.00;99.90;;;;;;6190624;23;20550;-79
2022/03/14 11:53:31;;;;;;;29.63;16.02;;;10.90;99.90;;;;;;6190888;23;20017;-80
2022/03/14 11:55:58;;;;;;;13.65;5.47;;;11.00;99.90;;;;;;6164570;23;20065;-80
2022/03/14 11:58:36;;;;;;;15.02;6.65;;;11.00;99.90;;;;;;6162560;23;20021;-80
2022/03/14 12:01:29;;;;;;;11.20;7.18;;;11.10;99.90;;;;;;6162309;23;20013;-81
2022/03/14 12:04:05;;;;;;;13.55;7.20;;;11.30;99.90;;;;;;6188195;23;20450;-79
2022/03/14 12:06:46;;;;;;;19.20;8.07;;;11.20;99.90;;;;;;6163015;23;20013;-79
2022/03/14 12:09:24;;;;;;;14.90;7.18;;;11.30;99.90;;;;;;6164887;23;20051;-80
2022/03/14 12:11:54;;;;;;;12.15;6.60;;;11.40;99.90;;;;;;6169146;23;20082;-78
2022/03/14 12:14:41;;;;;;;14.30;7.10;;;11.60;99.90;;;;;;6170348;23;20335;-80
2022/03/14 12:17:23;;;;;;;16.10;8.23;;;11.70;99.90;;;;;;6163988;23;20013;-79
2022/03/14 12:19:54;;;;;;;16.20;8.17;;;11.80;99.90;;;;;;6166985;23;20009;-80
2022/03/14 12:22:29;;;;;;;15.55;7.65;;;11.90;99.90;;;;;;6167578;23;20310;-79
2022/03/14 12:25:07;;;;;;;21.02;8.57;;;12.00;99.90;;;;;;6163122;23;20009;-80
2022/03/14 12:27:49;;;;;;;14.90;7.90;;;12.00;99.90;;;;;;6163165;23;20021;-80
2022/03/14 12:30:20;;;;;;;14.20;8.13;;;12.00;99.90;;;;;;6163712;23;20378;-80
2022/03/14 12:32:52;;;;;;;14.52;9.23;;;12.10;99.90;;;;;;6163390;23;20017;-79
2022/03/14 12:35:22;;;;;;;17.20;9.65;;;12.20;99.90;;;;;;6162203;23;20040;-80
2022/03/14 12:38:14;;;;;;;18.90;8.90;;;12.30;99.90;;;;;;6160858;23;20013;-79
2022/03/14 12:40:47;;;;;;;19.05;8.27;;;12.40;99.90;;;;;;6188408;23;20028;-79
2022/03/14 12:43:33;;;;;;;;;;;;;;;;;;;;;
2022/03/14 12:46:02;;;;;;;12.38;6.50;;;12.60;99.90;;;;;;6185577;23;20017;-82
2022/03/14 12:48:30;;;;;;;17.48;8.32;;;12.70;99.90;;;;;;6187412;23;20009;-82
2022/03/14 12:51:06;;;;;;;13.55;7.70;;;12.80;99.90;;;;;;6189580;23;20017;-81
2022/03/14 12:53:32;;;;;;;15.75;8.00;;;12.90;99.90;;;;;;6193083;23;20013;-83
2022/03/14 12:56:21;;;;;;;15.30;7.35;;;13.00;99.90;;;;;;6169298;23;20023;-83
2022/03/14 12:58:56;;;;;;;21.23;8.52;;;13.10;99.90;;;;;;6190304;23;20017;-84
2022/03/14 13:01:22;;;;;;;17.88;8.25;;;13.10;99.90;;;;;;6184262;23;20016;-78
2022/03/14 13:03:48;;;;;;;14.43;5.95;;;13.10;99.90;;;;;;6161175;23;20056;-80
2022/03/14 13:06:14;;;;;;;15.60;7.32;;;13.10;99.90;;;;;;6163458;23;20020;-80
2022/03/14 13:08:50;;;;;;;11.57;5.45;;;13.00;99.90;;;;;;6166087;23;20013;-80
2022/03/14 13:11:18;;;;;;;14.20;5.50;;;13.00;99.90;;;;;;6167076;23;20015;-84
2022/03/14 13:13:47;;;;;;;10.18;5.70;;;12.90;99.90;;;;;;6194534;23;20037;-80